Time;durP1;ratioP1;P1;durP2;ratioP2;P2;SDS_P1;SDS_P2;PMS_P1;PMS_P2;Temp;Humidity;BMP_temperature;BMP_pressure;BME280_temperature;BME280_humidity;BME280_pressure;Samples;Min_cycle;Max_cycle;Signal;HPM_P1;HPM_P2
2023/06/16 00:01:41;;;;;;;9.85;0.65;;;;;;;30.03;42.37;100339.44;7394929;19;20014;-79
2023/06/16 00:04:08;;;;;;;5.72;0.95;;;;;;;29.82;42.61;100343.59;7391620;19;20638;-79
2023/06/16 00:06:36;;;;;;;0.30;0.20;;;;;;;29.89;42.67;100345.59;7396998;19;20011;-79
2023/06/16 00:09:02;;;;;;;0.75;0.30;;;;;;;29.83;42.82;100345.13;7391429;19;20039;-79
2023/06/16 00:11:29;;;;;;;0.85;0.52;;;;;;;29.79;42.58;100350.56;7392926;19;20469;-79
2023/06/16 00:13:56;;;;;;;3.03;0.85;;;;;;;29.81;43.05;100347.06;7392231;19;20363;-79
2023/06/16 00:16:23;;;;;;;0.57;0.22;;;;;;;29.99;42.56;100346.38;7389252;19;20015;-79
2023/06/16 00:18:54;;;;;;;0.38;0.10;;;;;;;30.07;42.11;100342.63;7391691;19;20346;-79
2023/06/16 00:21:29;;;;;;;0.55;0.22;;;;;;;30.11;41.99;100345.78;7394335;19;20053;-79
2023/06/16 00:23:56;;;;;;;0.55;0.38;;;;;;;30.07;42.25;100340.50;7390441;19;20026;-79
2023/06/16 00:26:23;;;;;;;5.50;0.75;;;;;;;30.08;41.55;100335.53;7392180;19;20019;-79
2023/06/16 00:28:50;;;;;;;5.88;0.57;;;;;;;30.04;41.97;100340.97;7391864;19;20015;-79
2023/06/16 00:31:16;;;;;;;2.28;1.08;;;;;;;30.04;41.50;100340.97;7390902;19;20018;-79
2023/06/16 00:33:42;;;;;;;1.17;0.65;;;;;;;29.99;41.39;100334.88;7391347;19;20014;-79
2023/06/16 00:36:08;;;;;;;0.98;0.50;;;;;;;29.91;41.14;100345.75;7392377;19;20022;-79
2023/06/16 00:38:34;;;;;;;1.27;0.63;;;;;;;29.84;41.34;100335.13;7387800;19;20029;-79
2023/06/16 00:41:01;;;;;;;1.10;0.40;;;;;;;29.81;41.15;100329.84;7388197;19;20010;-79
2023/06/16 00:43:27;;;;;;;5.00;0.65;;;;;;;29.87;41.63;100336.81;7390093;19;20477;-79
2023/06/16 00:45:53;;;;;;;0.30;0.30;;;;;;;29.89;41.95;100339.84;7390191;19;20429;-79
2023/06/16 00:48:20;;;;;;;0.22;0.20;;;;;;;29.76;42.27;100334.50;7390583;19;20019;-79
2023/06/16 00:50:47;;;;;;;0.43;0.43;;;;;;;29.79;41.75;100339.06;7389626;19;20450;-79
2023/06/16 00:53:16;;;;;;;0.85;0.38;;;;;;;29.81;41.68;100336.34;7390763;19;20031;-79
2023/06/16 00:55:42;;;;;;;3.33;0.55;;;;;;;29.78;41.54;100337.53;7389772;19;20019;-78
2023/06/16 00:58:08;;;;;;;0.57;0.35;;;;;;;29.78;41.74;100334.66;7396622;19;20015;-78
2023/06/16 01:00:36;;;;;;;0.82;0.43;;;;;;;29.75;41.74;100333.00;7393974;19;20581;-79
2023/06/16 01:03:08;;;;;;;0.30;0.30;;;;;;;29.71;41.65;100332.66;7398876;19;20015;-79
2023/06/16 01:05:35;;;;;;;0.73;0.60;;;;;;;29.67;41.46;100332.31;7399464;19;20025;-78
2023/06/16 01:08:27;;;;;;;1.13;0.52;;;;;;;29.63;41.56;100329.13;7398351;19;20011;-79
2023/06/16 01:11:22;;;;;;;0.20;0.20;;;;;;;29.59;41.47;100330.94;7398073;19;20022;-79
2023/06/16 01:14:07;;;;;;;0.40;0.40;;;;;;;29.44;41.94;100329.06;7411009;19;20010;-78
2023/06/16 01:16:35;;;;;;;1.17;0.55;;;;;;;29.55;41.78;100325.63;7410775;19;20025;-79
2023/06/16 01:19:08;;;;;;;0.82;0.20;;;;;;;29.53;41.62;100321.84;7407520;19;20017;-79
2023/06/16 01:21:48;;;;;;;1.73;0.88;;;;;;;29.49;41.77;100328.03;7404726;19;20019;-78
2023/06/16 01:24:18;;;;;;;1.65;0.57;;;;;;;29.24;42.18;100324.56;7400039;19;20074;-79
2023/06/16 01:26:51;;;;;;;0.77;0.35;;;;;;;29.20;42.03;100321.38;7396269;19;20027;-79
2023/06/16 01:29:21;;;;;;;1.20;0.57;;;;;;;29.48;41.75;100320.75;7395386;19;20023;-79
2023/06/16 01:31:49;;;;;;;0.57;0.35;;;;;;;29.56;41.74;100321.41;7396201;19;20021;-79
2023/06/16 01:34:16;;;;;;;2.03;0.28;;;;;;;29.57;41.45;100322.94;7396209;19;20025;-79
2023/06/16 01:36:45;;;;;;;0.40;0.25;;;;;;;29.59;41.30;100320.22;7401297;19;20751;-79
2023/06/16 01:39:13;;;;;;;0.40;0.38;;;;;;;29.37;41.87;100315.56;7394600;19;20015;-79
2023/06/16 01:41:39;;;;;;;0.52;0.47;;;;;;;29.30;41.74;100313.59;7395625;19;20053;-79
2023/06/16 01:44:06;;;;;;;2.67;0.52;;;;;;;28.96;42.57;100323.00;7394213;19;20035;-79
2023/06/16 01:46:33;;;;;;;0.63;0.40;;;;;;;28.84;42.60;100309.78;7395743;19;20031;-79
2023/06/16 01:49:00;;;;;;;0.30;0.30;;;;;;;28.82;42.66;100312.50;7399364;19;20022;-79
2023/06/16 01:51:29;;;;;;;1.00;0.38;;;;;;;27.24;45.67;100303.97;7395677;19;20019;-79
2023/06/16 01:53:56;;;;;;;0.75;0.30;;;;;;;28.10;44.13;100312.88;7394085;19;20406;-79
2023/06/16 01:56:22;;;;;;;1.42;0.38;;;;;;;27.74;44.83;100310.53;7391235;19;20034;-78
2023/06/16 01:58:49;;;;;;;2.03;0.28;;;;;;;27.82;44.82;100302.63;7397830;19;20014;-79
2023/06/16 02:01:26;;;;;;;1.27;0.80;;;;;;;26.82;47.10;100300.97;7390771;19;20010;-78
2023/06/16 02:04:02;;;;;;;3.10;0.30;;;;;;;28.35;44.52;100293.53;7395501;19;20021;-79
2023/06/16 02:06:33;;;;;;;1.17;0.35;;;;;;;29.35;42.63;100301.06;7397147;19;20022;-78
2023/06/16 02:09:02;;;;;;;1.42;0.80;;;;;;;29.30;42.81;100290.63;7392579;19;20018;-79
2023/06/16 02:11:29;;;;;;;1.58;0.40;;;;;;;29.30;42.80;100299.25;7397156;19;20018;-79
2023/06/16 02:13:56;;;;;;;0.10;0.10;;;;;;;29.14;43.10;100292.16;7395156;19;20043;-79
2023/06/16 02:16:23;;;;;;;0.70;0.45;;;;;;;29.27;42.56;100297.56;7392593;19;20028;-78
2023/06/16 02:18:49;;;;;;;0.63;0.40;;;;;;;29.27;42.64;100291.81;7393436;19;20054;-79
2023/06/16 02:21:16;;;;;;;0.52;0.30;;;;;;;29.30;42.86;100296.38;7390465;19;20499;-79
2023/06/16 02:23:42;;;;;;;0.30;0.30;;;;;;;29.10;42.75;100286.13;7395061;19;20019;-79
2023/06/16 02:26:08;;;;;;;0.52;0.52;;;;;;;29.43;42.58;100293.13;7393159;19;20006;-78
2023/06/16 02:28:34;;;;;;;0.40;0.35;;;;;;;29.39;42.25;100292.78;7396831;19;20032;-79
2023/06/16 02:31:01;;;;;;;0.40;0.40;;;;;;;29.29;42.29;100291.22;7391407;19;20078;-79
2023/06/16 02:33:27;;;;;;;1.10;0.28;;;;;;;29.27;42.51;100288.94;7392727;19;20473;-78
2023/06/16 02:35:53;;;;;;;1.00;0.47;;;;;;;29.11;42.49;100281.88;7395148;19;20030;-79
2023/06/16 02:38:19;;;;;;;1.58;0.68;;;;;;;29.07;42.61;100287.28;7392833;19;20512;-79
2023/06/16 02:40:46;;;;;;;4.60;0.75;;;;;;;29.04;42.82;100294.25;7386538;19;20081;-79
2023/06/16 02:43:12;;;;;;;0.82;0.50;;;;;;;28.77;42.57;100282.72;7392417;19;20043;-79
2023/06/16 02:45:40;;;;;;;0.30;0.20;;;;;;;28.73;43.33;100287.38;7392161;19;20039;-78
2023/06/16 02:48:06;;;;;;;0.82;0.22;;;;;;;28.67;43.45;100284.78;7394312;19;20011;-79
2023/06/16 02:50:32;;;;;;;1.90;0.55;;;;;;;28.61;43.33;100284.25;7389528;19;20015;-79
2023/06/16 02:53:02;;;;;;;1.23;0.20;;;;;;;28.63;43.49;100287.28;7392908;19;20342;-79
2023/06/16 02:55:29;;;;;;;2.92;0.90;;;;;;;28.68;43.09;100288.38;7390834;19;20014;-79
2023/06/16 02:57:56;;;;;;;0.75;0.38;;;;;;;28.88;42.96;100285.06;7394204;19;20007;-79
2023/06/16 03:00:23;;;;;;;1.35;0.60;;;;;;;28.85;42.83;100289.13;7393379;19;20373;-79
2023/06/16 03:03:07;;;;;;;3.20;0.55;;;;;;;28.90;42.68;100285.25;7392526;19;20015;-79
2023/06/16 03:05:34;;;;;;;5.35;1.40;;;;;;;28.98;42.40;100282.25;7390918;19;20116;-79
2023/06/16 03:08:00;;;;;;;3.95;0.73;;;;;;;29.01;42.28;100286.81;7390368;19;20010;-79
2023/06/16 03:10:27;;;;;;;0.73;0.43;;;;;;;28.95;42.04;100281.34;7390851;19;20014;-79
2023/06/16 03:13:15;;;;;;;3.53;0.75;;;;;;;28.83;42.29;100279.59;7396824;19;20370;-79
2023/06/16 03:15:43;;;;;;;0.30;0.30;;;;;;;28.78;42.06;100289.22;7390610;19;20011;-79
2023/06/16 03:18:10;;;;;;;1.20;0.45;;;;;;;28.59;42.54;100283.38;7393066;19;20023;-79
2023/06/16 03:20:37;;;;;;;0.40;0.40;;;;;;;28.50;42.90;100279.78;7388840;19;20062;-80
2023/06/16 03:23:13;;;;;;;0.40;0.40;;;;;;;28.54;42.73;100285.84;7390764;19;20019;-79
2023/06/16 03:25:39;;;;;;;1.30;0.40;;;;;;;28.67;42.55;100284.03;7395091;19;20014;-80
2023/06/16 03:28:07;;;;;;;2.08;0.40;;;;;;;28.49;42.43;100286.09;7391925;19;20010;-80
2023/06/16 03:30:34;;;;;;;0.77;0.73;;;;;;;28.40;42.42;100281.81;7390030;19;20015;-79
2023/06/16 03:33:04;;;;;;;1.25;0.60;;;;;;;28.42;42.62;100281.97;7391944;19;20035;-79
2023/06/16 03:35:33;;;;;;;0.43;0.43;;;;;;;28.40;42.77;100281.06;7391828;19;20018;-79
2023/06/16 03:38:01;;;;;;;3.28;0.55;;;;;;;28.52;42.53;100279.22;7394697;19;20481;-79
2023/06/16 03:40:29;;;;;;;0.20;0.20;;;;;;;28.54;42.28;100277.25;7390709;19;20804;-79
2023/06/16 03:42:55;;;;;;;11.13;0.85;;;;;;;28.50;42.62;100282.66;7390782;19;20010;-80
2023/06/16 03:45:21;;;;;;;1.17;0.38;;;;;;;28.26;42.97;100274.91;7392551;19;20073;-79
2023/06/16 03:47:48;;;;;;;0.60;0.60;;;;;;;28.16;42.72;100281.88;7390213;19;20345;-79
2023/06/16 03:50:14;;;;;;;0.47;0.30;;;;;;;28.36;42.52;100284.34;7390397;19;20130;-79
2023/06/16 03:52:42;;;;;;;1.63;0.60;;;;;;;28.18;42.87;100279.94;7390738;19;20039;-80
2023/06/16 03:55:09;;;;;;;1.58;0.30;;;;;;;28.15;42.77;100281.16;7393212;19;20044;-79
2023/06/16 03:57:36;;;;;;;0.40;0.40;;;;;;;28.18;42.88;100287.78;7393027;19;20015;-79
2023/06/16 04:00:07;;;;;;;6.28;1.65;;;;;;;28.19;42.79;100287.22;7389327;19;20807;-79
2023/06/16 04:02:41;;;;;;;0.25;0.10;;;;;;;28.40;42.83;100278.94;7389980;19;20077;-79
2023/06/16 04:05:08;;;;;;;0.25;0.25;;;;;;;28.74;42.17;100277.44;7391419;19;20054;-79
2023/06/16 04:07:35;;;;;;;2.00;0.68;;;;;;;28.14;42.55;100276.75;7389957;19;20124;-79
2023/06/16 04:10:02;;;;;;;0.63;0.63;;;;;;;28.03;42.86;100273.63;7388760;19;20482;-79
2023/06/16 04:12:28;;;;;;;0.52;0.52;;;;;;;27.96;43.03;100280.16;7395040;19;20018;-79
2023/06/16 04:14:56;;;;;;;0.50;0.50;;;;;;;27.93;43.29;100276.38;7389961;19;20011;-79
2023/06/16 04:17:22;;;;;;;1.25;0.35;;;;;;;28.20;42.87;100271.53;7389751;19;20015;-79
2023/06/16 04:19:49;;;;;;;1.05;0.63;;;;;;;28.21;42.84;100273.06;7389313;19;20114;-79
2023/06/16 04:22:16;;;;;;;1.20;0.73;;;;;;;27.54;43.54;100274.41;7392718;19;20015;-79
2023/06/16 04:24:49;;;;;;;0.10;0.10;;;;;;;28.24;42.68;100266.13;7389208;19;20025;-79
2023/06/16 04:27:17;;;;;;;7.13;0.38;;;;;;;28.21;43.10;100261.59;7389247;19;20078;-79
2023/06/16 04:29:46;;;;;;;1.80;0.30;;;;;;;28.21;43.12;100260.84;7390166;19;20022;-80
2023/06/16 04:32:13;;;;;;;0.52;0.40;;;;;;;28.19;42.78;100266.41;7398528;19;20018;-79
2023/06/16 04:34:43;;;;;;;2.40;0.55;;;;;;;28.23;42.89;100267.50;7396059;19;20019;-79
2023/06/16 04:37:11;;;;;;;0.93;0.73;;;;;;;28.19;42.99;100269.25;7397206;19;20006;-79
2023/06/16 04:39:40;;;;;;;0.55;0.40;;;;;;;27.88;43.57;100268.00;7396519;19;20353;-79
2023/06/16 04:42:09;;;;;;;0.77;0.70;;;;;;;28.16;43.66;100271.19;7398928;19;20035;-79
2023/06/16 04:44:36;;;;;;;0.85;0.55;;;;;;;28.24;43.53;100265.41;7391909;19;20022;-79
2023/06/16 04:47:03;;;;;;;0.85;0.60;;;;;;;28.36;43.45;100266.41;7392480;19;20308;-79
2023/06/16 04:49:31;;;;;;;1.00;0.28;;;;;;;28.39;43.78;100265.97;7391793;19;20018;-79
2023/06/16 04:51:57;;;;;;;1.35;0.80;;;;;;;28.38;43.82;100264.47;7396680;19;20026;-79
2023/06/16 04:54:24;;;;;;;0.45;0.45;;;;;;;28.43;43.80;100263.47;7391260;19;20485;-79
2023/06/16 04:56:50;;;;;;;0.90;0.45;;;;;;;28.37;43.72;100268.66;7392332;19;20018;-79
2023/06/16 04:59:17;;;;;;;4.57;1.20;;;;;;;28.23;44.51;100263.88;7399507;19;20025;-79
2023/06/16 05:01:43;;;;;;;0.65;0.20;;;;;;;28.21;44.61;100266.56;7399160;19;20052;-79
2023/06/16 05:04:09;;;;;;;1.48;0.60;;;;;;;28.20;44.74;100262.94;7397371;19;20021;-79
2023/06/16 05:06:38;;;;;;;0.95;0.40;;;;;;;28.51;45.10;100260.47;7399799;19;20021;-79
2023/06/16 05:09:05;;;;;;;0.38;0.35;;;;;;;28.60;44.65;100261.94;7395551;19;20034;-79
2023/06/16 05:11:32;;;;;;;0.40;0.32;;;;;;;28.62;44.83;100264.97;7392708;19;20426;-80
2023/06/16 05:13:58;;;;;;;0.80;0.40;;;;;;;28.65;44.98;100263.78;7398845;19;20018;-80
2023/06/16 05:16:24;;;;;;;0.32;0.32;;;;;;;28.71;45.40;100265.03;7393412;19;20020;-80
2023/06/16 05:18:53;;;;;;;0.63;0.63;;;;;;;28.78;45.36;100266.28;7395326;19;20024;-80
2023/06/16 05:21:25;;;;;;;2.38;0.88;;;;;;;28.75;45.43;100267.47;7392990;19;20021;-79
2023/06/16 05:23:53;;;;;;;0.73;0.63;;;;;;;28.84;45.56;100263.91;7396858;19;20010;-79
2023/06/16 05:26:23;;;;;;;2.20;0.65;;;;;;;28.90;45.70;100267.25;7395099;19;20100;-79
2023/06/16 05:28:50;;;;;;;0.33;0.33;;;;;;;28.95;45.88;100260.50;7394869;19;20370;-80
2023/06/16 05:31:18;;;;;;;1.15;0.73;;;;;;;29.02;45.84;100259.66;7392435;19;20018;-80
2023/06/16 05:33:44;;;;;;;1.83;0.30;;;;;;;29.09;46.20;100267.38;7395416;19;20011;-79
2023/06/16 05:36:12;;;;;;;1.80;0.30;;;;;;;29.14;46.23;100263.47;7396117;19;20014;-79
2023/06/16 05:38:38;;;;;;;0.70;0.40;;;;;;;29.16;45.97;100260.81;7395407;19;20010;-79
2023/06/16 05:41:05;;;;;;;2.55;0.70;;;;;;;29.16;46.10;100266.53;7393508;19;20019;-79
2023/06/16 05:43:33;;;;;;;1.98;0.40;;;;;;;29.19;46.17;100263.22;7392922;19;20469;-79
2023/06/16 05:45:59;;;;;;;0.30;0.30;;;;;;;29.26;46.31;100258.72;7395633;19;20021;-80
2023/06/16 05:48:26;;;;;;;0.28;0.28;;;;;;;28.78;47.55;100267.06;7395069;19;20031;-80
2023/06/16 05:50:53;;;;;;;2.92;1.00;;;;;;;29.28;47.04;100261.78;7392727;19;20352;-79
2023/06/16 05:53:19;;;;;;;1.88;0.30;;;;;;;29.39;46.45;100260.47;7394401;19;20043;-80
2023/06/16 05:55:45;;;;;;;0.93;0.82;;;;;;;29.60;46.51;100266.44;7394045;19;20469;-79
2023/06/16 05:58:11;;;;;;;0.73;0.17;;;;;;;29.66;46.21;100259.03;7397207;19;20023;-79
2023/06/16 06:00:37;;;;;;;2.78;0.60;;;;;;;29.78;46.45;100262.09;7395120;19;20017;-80
2023/06/16 06:03:11;;;;;;;0.40;0.15;;;;;;;29.95;46.30;100265.63;7394906;19;20010;-80
2023/06/16 06:05:38;;;;;;;0.50;0.47;;;;;;;30.04;46.08;100264.13;7397378;19;20022;-80
2023/06/16 06:08:05;;;;;;;1.02;0.55;;;;;;;30.06;46.21;100266.41;7393682;19;20072;-80
2023/06/16 06:10:32;;;;;;;2.30;0.30;;;;;;;30.14;46.39;100267.03;7391949;19;20029;-80
2023/06/16 06:13:03;;;;;;;1.98;0.40;;;;;;;30.15;46.13;100268.56;7393857;19;20014;-80
2023/06/16 06:15:30;;;;;;;1.48;0.20;;;;;;;30.04;46.72;100266.25;7391756;19;20019;-80
2023/06/16 06:18:05;;;;;;;0.45;0.20;;;;;;;29.99;46.75;100268.06;7393349;19;20018;-80
2023/06/16 06:20:34;;;;;;;3.35;0.57;;;;;;;30.14;46.59;100269.91;7391202;19;20417;-79
2023/06/16 06:23:00;;;;;;;1.00;0.28;;;;;;;30.37;46.51;100275.97;7393336;19;20015;-80
2023/06/16 06:25:27;;;;;;;1.27;0.70;;;;;;;30.49;45.99;100274.78;7393344;19;20018;-79
2023/06/16 06:27:53;;;;;;;5.03;0.70;;;;;;;30.31;46.77;100272.66;7393416;19;20018;-80
2023/06/16 06:30:19;;;;;;;2.08;0.38;;;;;;;30.50;46.66;100266.91;7392378;19;20033;-79
2023/06/16 06:32:45;;;;;;;0.10;0.10;;;;;;;30.83;46.68;100276.56;7393875;19;20018;-79
2023/06/16 06:35:13;;;;;;;2.05;0.20;;;;;;;30.87;46.58;100271.13;7393524;19;20011;-79
2023/06/16 06:37:40;;;;;;;0.77;0.40;;;;;;;31.00;46.76;100267.78;7397187;19;20090;-80
2023/06/16 06:40:06;;;;;;;0.43;0.20;;;;;;;31.29;46.46;100273.44;7392381;19;20018;-79
2023/06/16 06:42:33;;;;;;;2.55;0.38;;;;;;;31.30;46.60;100272.06;7392859;19;20020;-79
2023/06/16 06:45:03;;;;;;;0.93;0.35;;;;;;;31.61;45.45;100269.25;7393008;19;20022;-79
2023/06/16 06:47:31;;;;;;;0.57;0.52;;;;;;;31.40;45.10;100270.69;7393509;19;20488;-79
2023/06/16 06:50:06;;;;;;;1.15;0.32;;;;;;;31.46;44.89;100263.84;7391683;19;20094;-80
2023/06/16 06:52:32;;;;;;;1.73;0.30;;;;;;;31.82;44.55;100264.25;7394092;19;20069;-79
2023/06/16 06:54:58;;;;;;;1.52;0.30;;;;;;;31.81;44.81;100262.78;7390739;19;20090;-80
2023/06/16 06:57:24;;;;;;;0.88;0.47;;;;;;;31.67;44.83;100272.53;7394944;19;20018;-80
2023/06/16 06:59:50;;;;;;;0.85;0.40;;;;;;;31.73;45.13;100272.97;7396140;19;20015;-79
2023/06/16 07:02:16;;;;;;;0.85;0.22;;;;;;;31.79;44.71;100277.03;7392814;19;20020;-78
2023/06/16 07:04:43;;;;;;;2.97;0.50;;;;;;;31.79;43.64;100276.28;7394587;19;20010;-80
2023/06/16 07:07:10;;;;;;;0.55;0.22;;;;;;;31.88;43.60;100284.13;7393499;19;20023;-81
2023/06/16 07:09:36;;;;;;;1.13;0.55;;;;;;;32.05;43.92;100281.00;7392697;19;20461;-81
2023/06/16 07:12:02;;;;;;;0.60;0.30;;;;;;;32.26;43.58;100277.34;7392099;19;20010;-81
2023/06/16 07:14:31;;;;;;;0.50;0.45;;;;;;;32.39;43.27;100280.44;7391133;19;20306;-80
2023/06/16 07:16:57;;;;;;;1.08;0.45;;;;;;;32.59;43.47;100284.69;7390686;19;20034;-79
2023/06/16 07:19:26;;;;;;;0.70;0.17;;;;;;;32.63;42.52;100287.09;7394280;19;20022;-79
2023/06/16 07:21:53;;;;;;;2.05;0.65;;;;;;;32.76;42.53;100289.41;7396396;19;20018;-79
2023/06/16 07:24:20;;;;;;;0.20;0.17;;;;;;;32.81;41.45;100279.63;7393014;19;20048;-80
2023/06/16 07:26:47;;;;;;;0.73;0.28;;;;;;;32.92;41.74;100291.19;7391993;19;20369;-80
2023/06/16 07:29:13;;;;;;;1.95;0.50;;;;;;;32.98;40.42;100290.09;7392379;19;20532;-79
2023/06/16 07:31:39;;;;;;;0.47;0.25;;;;;;;32.92;39.26;100288.31;7391194;19;20010;-79
2023/06/16 07:34:06;;;;;;;4.38;0.10;;;;;;;33.02;39.44;100294.03;7391204;19;20037;-79
2023/06/16 07:36:33;;;;;;;1.70;0.30;;;;;;;33.32;39.99;100281.53;7392687;19;20047;-79
2023/06/16 07:38:59;;;;;;;0.22;0.15;;;;;;;33.47;40.70;100291.81;7391606;19;20469;-79
2023/06/16 07:41:25;;;;;;;0.40;0.20;;;;;;;33.57;40.14;100290.34;7390159;19;20018;-79
2023/06/16 07:43:52;;;;;;;1.73;0.70;;;;;;;33.71;38.98;100296.25;7391344;19;20037;-79
2023/06/16 07:46:18;;;;;;;1.02;0.55;;;;;;;33.81;39.35;100290.38;7390824;19;20702;-79
2023/06/16 07:48:45;;;;;;;0.25;0.05;;;;;;;33.81;39.36;100293.25;7391282;19;20035;-79
2023/06/16 07:51:11;;;;;;;0.22;0.08;;;;;;;33.69;39.05;100290.34;7388799;19;20018;-79
2023/06/16 07:53:39;;;;;;;1.63;0.10;;;;;;;33.97;39.11;100292.09;7392276;19;20040;-80
2023/06/16 07:56:06;;;;;;;0.30;0.10;;;;;;;33.89;38.62;100288.72;7389657;19;20040;-79
2023/06/16 07:58:32;;;;;;;1.42;0.28;;;;;;;34.12;38.25;100291.59;7394694;19;20039;-80
2023/06/16 08:00:59;;;;;;;0.10;0.10;;;;;;;34.21;37.82;100299.38;7388407;19;20043;-80
2023/06/16 08:03:25;;;;;;;0.20;0.10;;;;;;;34.28;38.39;100295.44;7390675;19;20026;-79
2023/06/16 08:05:52;;;;;;;0.93;0.10;;;;;;;34.19;35.09;100296.34;7393584;19;20029;-79
2023/06/16 08:08:18;;;;;;;1.30;0.22;;;;;;;34.21;36.97;100287.03;7390638;19;20018;-79
2023/06/16 08:10:45;;;;;;;2.20;0.45;;;;;;;34.30;36.91;100301.38;7389884;19;20029;-80
2023/06/16 08:13:11;;;;;;;2.22;0.10;;;;;;;34.40;35.63;100297.53;7387146;19;20022;-79
2023/06/16 08:15:37;;;;;;;3.55;0.45;;;;;;;34.58;36.69;100295.75;7388401;19;20030;-80
2023/06/16 08:18:03;;;;;;;0.22;0.10;;;;;;;34.85;37.24;100295.88;7392488;19;20098;-79
2023/06/16 08:20:30;;;;;;;2.30;0.40;;;;;;;35.10;35.57;100310.38;7390844;19;20026;-80
2023/06/16 08:22:56;;;;;;;0.30;0.10;;;;;;;35.30;36.15;100299.94;7392247;19;20011;-79
2023/06/16 08:25:22;;;;;;;0.40;0.17;;;;;;;35.44;36.40;100303.59;7392006;19;20021;-79
2023/06/16 08:27:48;;;;;;;0.40;0.10;;;;;;;35.53;35.41;100301.91;7389195;19;20015;-79
2023/06/16 08:30:17;;;;;;;3.53;0.10;;;;;;;35.71;35.90;100297.84;7390077;19;20011;-79
2023/06/16 08:32:43;;;;;;;2.92;0.40;;;;;;;35.85;34.84;100289.16;7391583;19;20019;-79
2023/06/16 08:35:10;;;;;;;1.45;0.30;;;;;;;35.73;34.72;100292.19;7391092;19;20022;-79
2023/06/16 08:37:36;;;;;;;1.63;0.17;;;;;;;35.85;34.80;100280.47;7389128;19;20321;-79
2023/06/16 08:40:07;;;;;;;8.15;0.52;;;;;;;36.05;36.16;100278.66;7389474;19;20047;-80
2023/06/16 08:42:37;;;;;;;2.17;0.40;;;;;;;36.17;35.05;100284.34;7387790;19;20023;-79
2023/06/16 08:45:04;;;;;;;0.32;0.30;;;;;;;36.46;34.58;100293.09;7387584;19;20450;-80
2023/06/16 08:47:30;;;;;;;8.05;0.20;;;;;;;36.60;34.44;100279.31;7387904;19;20011;-80
2023/06/16 08:49:57;;;;;;;1.80;0.38;;;;;;;36.72;34.30;100279.91;7388717;19;20362;-79
2023/06/16 08:52:25;;;;;;;1.45;0.10;;;;;;;36.90;33.61;100275.03;7394680;19;20354;-79
2023/06/16 08:54:57;;;;;;;1.52;0.35;;;;;;;37.08;34.20;100281.69;7388501;19;20082;-80
2023/06/16 08:57:25;;;;;;;0.20;0.10;;;;;;;37.03;34.24;100280.03;7391777;19;20518;-80
2023/06/16 08:59:56;;;;;;;1.42;0.10;;;;;;;37.29;32.41;100288.47;7389193;19;20474;-80
2023/06/16 09:02:23;;;;;;;;;;;;;;;37.37;32.45;100283.06;7392639;19;20082;-80
2023/06/16 09:04:50;;;;;;;0.40;0.10;;;;;;;37.42;32.76;100278.94;7387716;19;19926;-80
2023/06/16 09:07:19;;;;;;;1.17;0.25;;;;;;;37.87;32.91;100282.50;7390630;19;20022;-80
2023/06/16 09:09:46;;;;;;;0.68;0.20;;;;;;;37.91;32.59;100277.59;7389438;19;20379;-80
2023/06/16 09:12:12;;;;;;;0.63;0.20;;;;;;;36.96;33.06;100269.50;7392213;19;20014;-80
2023/06/16 09:14:39;;;;;;;0.73;0.10;;;;;;;38.05;31.19;100268.75;7388481;19;20019;-81
2023/06/16 09:17:07;;;;;;;0.68;0.08;;;;;;;38.54;32.22;100269.44;7389748;19;20018;-80
2023/06/16 09:19:36;;;;;;;2.25;0.20;;;;;;;38.72;30.54;100268.72;7396184;19;20066;-81
2023/06/16 09:22:03;;;;;;;0.30;0.20;;;;;;;38.57;31.32;100265.19;7401551;19;20019;-81
2023/06/16 09:24:29;;;;;;;0.52;0.30;;;;;;;38.60;31.37;100263.09;7396982;19;20485;-80
2023/06/16 09:26:57;;;;;;;0.47;0.00;;;;;;;38.56;31.37;100263.69;7397134;19;20015;-79
2023/06/16 09:29:25;;;;;;;2.90;0.25;;;;;;;38.60;31.50;100251.44;7395496;19;20023;-79
2023/06/16 09:31:52;;;;;;;0.45;0.22;;;;;;;38.35;29.40;100267.19;7399651;19;20507;-79
2023/06/16 09:34:18;;;;;;;1.70;0.28;;;;;;;39.12;28.56;100259.44;7396332;19;20019;-80
2023/06/16 09:36:45;;;;;;;1.45;0.10;;;;;;;39.19;29.12;100251.69;7398435;19;20078;-79
2023/06/16 09:39:26;;;;;;;1.75;0.20;;;;;;;39.09;28.94;100257.09;7398446;19;20036;-79
2023/06/16 09:41:53;;;;;;;1.27;0.20;;;;;;;39.15;28.71;100251.53;7399534;19;20120;-79
2023/06/16 09:44:25;;;;;;;0.10;0.10;;;;;;;39.08;27.80;100258.50;7395131;19;20085;-79
2023/06/16 09:46:52;;;;;;;1.40;0.25;;;;;;;39.04;28.25;100253.28;7394368;19;20026;-79
2023/06/16 09:49:25;;;;;;;0.60;0.15;;;;;;;39.17;28.94;100252.38;7396129;19;20025;-79
2023/06/16 09:51:56;;;;;;;1.58;0.20;;;;;;;39.52;27.96;100253.66;7399433;19;20022;-79
2023/06/16 09:54:24;;;;;;;1.30;0.10;;;;;;;39.19;29.12;100251.69;7396393;19;20026;-79
2023/06/16 09:56:54;;;;;;;0.68;0.20;;;;;;;35.74;33.87;100244.38;7392632;19;20011;-79
2023/06/16 09:59:21;;;;;;;0.25;0.10;;;;;;;38.98;29.61;100249.38;7401356;19;20035;-80
2023/06/16 10:01:48;;;;;;;1.05;0.15;;;;;;;39.62;29.07;100243.16;7398677;19;20376;-79
2023/06/16 10:04:16;;;;;;;0.95;0.20;;;;;;;39.62;27.90;100246.06;7394866;19;20419;-79
2023/06/16 10:07:00;;;;;;;1.65;0.25;;;;;;;39.35;28.94;100240.66;7397596;19;20465;-79
2023/06/16 10:09:35;;;;;;;0.15;0.00;;;;;;;39.37;28.82;100237.81;7393272;19;20015;-79
2023/06/16 10:12:03;;;;;;;0.50;0.10;;;;;;;39.25;28.31;100240.25;7396690;19;20372;-78
2023/06/16 10:14:33;;;;;;;1.23;0.20;;;;;;;39.36;29.30;100242.13;7393084;19;20018;-79
2023/06/16 10:17:00;;;;;;;1.17;0.10;;;;;;;39.54;28.37;100239.91;7395790;19;20023;-80
2023/06/16 10:19:30;;;;;;;4.25;0.35;;;;;;;39.60;27.27;100234.31;7395087;19;20077;-80
2023/06/16 10:21:56;;;;;;;1.45;0.05;;;;;;;39.79;28.08;100235.72;7396615;19;20018;-80
2023/06/16 10:24:23;;;;;;;2.30;0.38;;;;;;;40.09;27.97;100228.06;7394920;19;20019;-80
2023/06/16 10:26:50;;;;;;;0.85;0.20;;;;;;;40.13;27.48;100227.47;7394409;19;20023;-81
2023/06/16 10:29:20;;;;;;;0.88;0.10;;;;;;;40.15;28.35;100231.22;7393873;19;20018;-80
2023/06/16 10:31:49;;;;;;;0.60;0.20;;;;;;;40.05;27.04;100234.50;7397583;19;20039;-79
2023/06/16 10:34:20;;;;;;;1.58;0.05;;;;;;;40.07;27.86;100220.00;7393460;19;20014;-79
2023/06/16 10:36:48;;;;;;;1.42;0.17;;;;;;;40.04;27.15;100232.28;7395864;19;20018;-79
2023/06/16 10:39:18;;;;;;;1.70;0.10;;;;;;;40.11;27.29;100225.97;7394313;19;20413;-79
2023/06/16 10:41:55;;;;;;;1.70;0.30;;;;;;;40.29;27.37;100222.16;7397597;19;20015;-79
2023/06/16 10:44:25;;;;;;;0.52;0.10;;;;;;;40.38;26.54;100223.94;7393199;19;20243;-80
2023/06/16 10:47:10;;;;;;;0.77;0.17;;;;;;;40.29;25.93;100222.16;7390653;19;20019;-79
2023/06/16 10:49:50;;;;;;;1.00;0.10;;;;;;;40.37;26.46;100213.69;7390667;19;20086;-80
2023/06/16 10:52:17;;;;;;;1.00;0.28;;;;;;;40.58;26.12;100212.94;7398069;19;20327;-79
2023/06/16 10:54:48;;;;;;;2.50;0.75;;;;;;;40.42;26.75;100206.56;7392994;19;20022;-79
2023/06/16 10:57:14;;;;;;;2.00;0.30;;;;;;;40.46;26.49;100206.72;7395160;19;20039;-78
2023/06/16 11:00:33;;;;;;;2.95;0.10;;;;;;;40.53;26.08;100206.22;7392112;19;20074;-80
2023/06/16 11:02:59;;;;;;;0.47;0.08;;;;;;;40.90;26.35;100208.16;7392434;19;20673;-79
2023/06/16 11:05:41;;;;;;;2.50;0.40;;;;;;;41.09;25.83;100200.66;7395371;19;20039;-79
2023/06/16 11:08:13;;;;;;;2.10;0.22;;;;;;;40.80;26.12;100204.91;7390767;19;20465;-80
2023/06/16 11:10:50;;;;;;;0.52;0.00;;;;;;;41.05;26.41;100207.16;7391373;19;20022;-79
2023/06/16 11:13:29;;;;;;;2.08;0.22;;;;;;;40.86;25.88;100195.59;7392784;19;20014;-80
2023/06/16 11:15:55;;;;;;;5.18;0.20;;;;;;;40.90;26.38;100196.47;7394444;19;20022;-80
2023/06/16 11:18:24;;;;;;;1.48;0.28;;;;;;;41.22;26.20;100197.44;7396609;19;20026;-80
2023/06/16 11:20:58;;;;;;;0.95;0.10;;;;;;;41.19;26.27;100190.03;7393976;19;20010;-81
2023/06/16 11:23:25;;;;;;;0.40;0.10;;;;;;;41.37;25.60;100190.59;7396875;19;20335;-81
2023/06/16 11:25:51;;;;;;;0.38;0.10;;;;;;;41.29;24.98;100184.50;7396781;19;20394;-80
2023/06/16 11:28:21;;;;;;;0.93;0.00;;;;;;;41.16;25.51;100194.34;7391505;19;20026;-80
2023/06/16 11:30:48;;;;;;;0.63;0.20;;;;;;;41.25;25.09;100184.41;7391292;19;20027;-80